sensor_id;sensor_type;location;lat;lon;timestamp;pressure;altitude;pressure_sealevel;temperature;humidity
41636;BME280;27623;51.966;4.602;2022-07-29T00:00:42;-19354.25;;;19.97;60.68
41636;BME280;27623;51.966;4.602;2022-07-29T00:03:10;-19352.81;;;19.92;61.95
41636;BME280;27623;51.966;4.602;2022-07-29T00:05:39;-19354.53;;;19.98;60.94
41636;BME280;27623;51.966;4.602;2022-07-29T00:08:08;-19353.69;;;19.95;61.47
41636;BME280;27623;51.966;4.602;2022-07-29T00:10:42;-19352.53;;;19.90;61.55
41636;BME280;27623;51.966;4.602;2022-07-29T00:13:08;-19354.66;;;19.98;61.05
41636;BME280;27623;51.966;4.602;2022-07-29T00:15:33;-19353.25;;;19.93;61.40
41636;BME280;27623;51.966;4.602;2022-07-29T00:17:59;-19351.25;;;19.86;61.41
41636;BME280;27623;51.966;4.602;2022-07-29T00:20:24;-19349.41;;;19.79;61.95
41636;BME280;27623;51.966;4.602;2022-07-29T00:22:50;-19348.28;;;19.75;62.04
41636;BME280;27623;51.966;4.602;2022-07-29T00:25:15;-19348.56;;;19.76;62.95
41636;BME280;27623;51.966;4.602;2022-07-29T00:27:41;-19344.03;;;19.60;62.81
41636;BME280;27623;51.966;4.602;2022-07-29T00:30:08;-19348.56;;;19.76;62.40
41636;BME280;27623;51.966;4.602;2022-07-29T00:32:33;-19348.13;;;19.75;62.09
41636;BME280;27623;51.966;4.602;2022-07-29T00:34:59;-19343.59;;;19.59;62.79
41636;BME280;27623;51.966;4.602;2022-07-29T00:37:43;-19343.72;;;19.59;63.29
41636;BME280;27623;51.966;4.602;2022-07-29T00:40:09;-19340.88;;;19.49;63.46
41636;BME280;27623;51.966;4.602;2022-07-29T00:42:45;-19340.59;;;19.48;63.92
41636;BME280;27623;51.966;4.602;2022-07-29T00:45:12;-19344.31;;;19.61;63.90
41636;BME280;27623;51.966;4.602;2022-07-29T00:47:37;-19347.00;;;19.71;63.31
41636;BME280;27623;51.966;4.602;2022-07-29T00:50:07;-19345.28;;;19.65;63.38
41636;BME280;27623;51.966;4.602;2022-07-29T00:52:36;-19339.47;;;19.44;64.29
41636;BME280;27623;51.966;4.602;2022-07-29T00:55:06;-19342.59;;;19.55;64.01
41636;BME280;27623;51.966;4.602;2022-07-29T00:57:36;-19338.19;;;19.39;64.51
41636;BME280;27623;51.966;4.602;2022-07-29T01:00:07;-19338.47;;;19.40;64.73
41636;BME280;27623;51.966;4.602;2022-07-29T01:02:33;-19338.75;;;19.41;64.63
41636;BME280;27623;51.966;4.602;2022-07-29T01:05:01;-19337.75;;;19.38;64.87
41636;BME280;27623;51.966;4.602;2022-07-29T01:07:29;-19340.31;;;19.47;64.82
41636;BME280;27623;51.966;4.602;2022-07-29T01:09:56;-19336.63;;;19.34;64.39
41636;BME280;27623;51.966;4.602;2022-07-29T01:12:25;-19331.50;;;19.15;65.36
41636;BME280;27623;51.966;4.602;2022-07-29T01:14:53;-19331.50;;;19.15;65.78
41636;BME280;27623;51.966;4.602;2022-07-29T01:17:31;-19332.22;;;19.18;65.90
41636;BME280;27623;51.966;4.602;2022-07-29T01:20:10;-19333.22;;;19.21;65.44
41636;BME280;27623;51.966;4.602;2022-07-29T01:30:34;-19335.78;;;19.31;65.17
41636;BME280;27623;51.966;4.602;2022-07-29T01:33:07;-19335.06;;;19.28;64.87
41636;BME280;27623;51.966;4.602;2022-07-29T01:35:38;-19329.66;;;19.09;66.46
41636;BME280;27623;51.966;4.602;2022-07-29T01:38:17;-19329.25;;;19.07;65.92
41636;BME280;27623;51.966;4.602;2022-07-29T01:43:14;-19326.69;;;18.98;66.97
41636;BME280;27623;51.966;4.602;2022-07-29T01:45:58;-19325.69;;;18.95;67.15
41636;BME280;27623;51.966;4.602;2022-07-29T01:51:29;-19325.81;;;18.95;67.10
41636;BME280;27623;51.966;4.602;2022-07-29T01:54:20;-19326.41;;;18.97;67.39
41636;BME280;27623;51.966;4.602;2022-07-29T01:56:51;-19327.53;;;19.01;67.06
41636;BME280;27623;51.966;4.602;2022-07-29T01:59:17;-19326.97;;;18.99;67.04
41636;BME280;27623;51.966;4.602;2022-07-29T02:01:45;-19325.97;;;18.96;67.63
41636;BME280;27623;51.966;4.602;2022-07-29T02:04:12;-19328.09;;;19.03;66.95
41636;BME280;27623;51.966;4.602;2022-07-29T02:06:41;-19326.25;;;18.97;66.91
41636;BME280;27623;51.966;4.602;2022-07-29T02:09:09;-19325.25;;;18.93;67.74
41636;BME280;27623;51.966;4.602;2022-07-29T02:11:36;-19325.13;;;18.93;67.14
41636;BME280;27623;51.966;4.602;2022-07-29T02:14:03;-19324.97;;;18.92;67.75
41636;BME280;27623;51.966;4.602;2022-07-29T02:16:30;-19324.13;;;18.89;67.94
41636;BME280;27623;51.966;4.602;2022-07-29T02:19:00;-19321.84;;;18.81;67.93
41636;BME280;27623;51.966;4.602;2022-07-29T02:21:26;-19323.56;;;18.87;68.13
41636;BME280;27623;51.966;4.602;2022-07-29T02:23:56;-19322.28;;;18.82;68.52
41636;BME280;27623;51.966;4.602;2022-07-29T02:26:25;-19322.00;;;18.81;68.11
41636;BME280;27623;51.966;4.602;2022-07-29T02:28:54;-19321.00;;;18.78;68.36
41636;BME280;27623;51.966;4.602;2022-07-29T02:31:24;-19317.16;;;18.64;68.43
41636;BME280;27623;51.966;4.602;2022-07-29T02:33:52;-19321.56;;;18.80;68.54
41636;BME280;27623;51.966;4.602;2022-07-29T02:36:21;-19318.16;;;18.68;68.43
41636;BME280;27623;51.966;4.602;2022-07-29T02:38:48;-19321.69;;;18.80;67.93
41636;BME280;27623;51.966;4.602;2022-07-29T02:41:26;-19319.72;;;18.73;68.58
41636;BME280;27623;51.966;4.602;2022-07-29T02:44:03;-19319.56;;;18.73;68.59
41636;BME280;27623;51.966;4.602;2022-07-29T02:46:34;-19317.59;;;18.66;68.92
41636;BME280;27623;51.966;4.602;2022-07-29T02:49:16;-19319.28;;;18.72;68.96
41636;BME280;27623;51.966;4.602;2022-07-29T02:52:04;-19319.84;;;18.74;68.57
41636;BME280;27623;51.966;4.602;2022-07-29T02:54:46;-19317.59;;;18.66;68.77
41636;BME280;27623;51.966;4.602;2022-07-29T02:57:21;-19317.59;;;18.66;69.11
41636;BME280;27623;51.966;4.602;2022-07-29T02:59:50;-19319.00;;;18.71;68.37
41636;BME280;27623;51.966;4.602;2022-07-29T03:02:17;-19319.72;;;18.73;68.86
41636;BME280;27623;51.966;4.602;2022-07-29T03:04:43;-19317.00;;;18.64;68.98
41636;BME280;27623;51.966;4.602;2022-07-29T03:07:11;-19312.59;;;18.48;69.28
41636;BME280;27623;51.966;4.602;2022-07-29T03:09:38;-19313.44;;;18.51;69.67
41636;BME280;27623;51.966;4.602;2022-07-29T03:12:09;-19313.59;;;18.51;69.53
41636;BME280;27623;51.966;4.602;2022-07-29T03:14:36;-19313.31;;;18.50;69.58
41636;BME280;27623;51.966;4.602;2022-07-29T03:17:02;-19315.31;;;18.58;69.44
41636;BME280;27623;51.966;4.602;2022-07-29T03:19:28;-19315.00;;;18.57;69.41
41636;BME280;27623;51.966;4.602;2022-07-29T03:21:57;-19313.16;;;18.50;69.42
41636;BME280;27623;51.966;4.602;2022-07-29T03:24:36;-19314.03;;;18.53;69.18
41636;BME280;27623;51.966;4.602;2022-07-29T03:27:02;-19312.31;;;18.47;69.69
41636;BME280;27623;51.966;4.602;2022-07-29T03:29:28;-19310.19;;;18.39;69.27
41636;BME280;27623;51.966;4.602;2022-07-29T03:31:54;-19308.63;;;18.34;69.89
41636;BME280;27623;51.966;4.602;2022-07-29T03:34:20;-19311.03;;;18.42;70.09
41636;BME280;27623;51.966;4.602;2022-07-29T03:36:46;-19311.31;;;18.43;69.87
41636;BME280;27623;51.966;4.602;2022-07-29T03:39:14;-19310.31;;;18.40;70.36
41636;BME280;27623;51.966;4.602;2022-07-29T03:41:42;-19310.31;;;18.40;70.38
41636;BME280;27623;51.966;4.602;2022-07-29T03:44:09;-19310.88;;;18.42;70.43
41636;BME280;27623;51.966;4.602;2022-07-29T03:46:37;-19313.03;;;18.49;69.64
41636;BME280;27623;51.966;4.602;2022-07-29T03:49:04;-19310.31;;;18.40;69.79
41636;BME280;27623;51.966;4.602;2022-07-29T03:51:33;-19307.63;;;18.30;70.36
41636;BME280;27623;51.966;4.602;2022-07-29T03:53:59;-19309.75;;;18.38;70.58
41636;BME280;27623;51.966;4.602;2022-07-29T03:56:26;-19309.91;;;18.38;70.50
41636;BME280;27623;51.966;4.602;2022-07-29T03:58:53;-19307.63;;;18.30;70.34
41636;BME280;27623;51.966;4.602;2022-07-29T04:01:19;-19306.47;;;18.26;70.42
41636;BME280;27623;51.966;4.602;2022-07-29T04:03:46;-19308.91;;;18.35;70.04
41636;BME280;27623;51.966;4.602;2022-07-29T04:06:12;-19306.78;;;18.27;70.74
41636;BME280;27623;51.966;4.602;2022-07-29T04:08:37;-19307.47;;;18.30;69.88
41636;BME280;27623;51.966;4.602;2022-07-29T04:11:04;-19305.34;;;18.22;70.64
41636;BME280;27623;51.966;4.602;2022-07-29T04:13:30;-19305.06;;;18.21;70.43
41636;BME280;27623;51.966;4.602;2022-07-29T04:15:56;-19303.91;;;18.17;70.83
41636;BME280;27623;51.966;4.602;2022-07-29T04:18:22;-19303.50;;;18.15;70.89
41636;BME280;27623;51.966;4.602;2022-07-29T04:20:48;-19304.22;;;18.18;70.76
41636;BME280;27623;51.966;4.602;2022-07-29T04:23:14;-19303.50;;;18.15;71.04
41636;BME280;27623;51.966;4.602;2022-07-29T04:25:41;-19301.38;;;18.08;71.24
41636;BME280;27623;51.966;4.602;2022-07-29T04:28:07;-19304.63;;;18.19;71.06
41636;BME280;27623;51.966;4.602;2022-07-29T04:30:34;-19301.66;;;18.09;70.82
41636;BME280;27623;51.966;4.602;2022-07-29T04:33:01;-19302.34;;;18.11;71.45
41636;BME280;27623;51.966;4.602;2022-07-29T04:35:28;-19302.06;;;18.10;70.79
41636;BME280;27623;51.966;4.602;2022-07-29T04:37:53;-19301.38;;;18.08;70.97
41636;BME280;27623;51.966;4.602;2022-07-29T04:40:20;-19302.34;;;18.11;70.80
41636;BME280;27623;51.966;4.602;2022-07-29T04:42:46;-19299.50;;;18.01;71.46
41636;BME280;27623;51.966;4.602;2022-07-29T04:45:12;-19300.94;;;18.06;71.17
41636;BME280;27623;51.966;4.602;2022-07-29T04:47:37;-19299.50;;;18.01;71.41
41636;BME280;27623;51.966;4.602;2022-07-29T04:50:03;-19299.81;;;18.02;71.61
41636;BME280;27623;51.966;4.602;2022-07-29T04:52:30;-19296.81;;;17.92;71.35
41636;BME280;27623;51.966;4.602;2022-07-29T04:54:56;-19295.66;;;17.88;71.05
41636;BME280;27623;51.966;4.602;2022-07-29T04:57:22;-19295.53;;;17.87;70.98
41636;BME280;27623;51.966;4.602;2022-07-29T04:59:47;-19295.09;;;17.85;71.35
41636;BME280;27623;51.966;4.602;2022-07-29T05:02:13;-19296.53;;;17.91;71.68
41636;BME280;27623;51.966;4.602;2022-07-29T05:04:39;-19299.81;;;18.02;70.69
41636;BME280;27623;51.966;4.602;2022-07-29T05:07:04;-19298.66;;;17.98;71.23
41636;BME280;27623;51.966;4.602;2022-07-29T05:09:30;-19298.22;;;17.97;70.97
41636;BME280;27623;51.966;4.602;2022-07-29T05:12:00;-19297.09;;;17.93;71.81
41636;BME280;27623;51.966;4.602;2022-07-29T05:14:25;-19298.22;;;17.97;71.23
41636;BME280;27623;51.966;4.602;2022-07-29T05:16:51;-19294.81;;;17.84;72.27
41636;BME280;27623;51.966;4.602;2022-07-29T05:19:18;-19295.81;;;17.88;72.93
41636;BME280;27623;51.966;4.602;2022-07-29T05:21:44;-19297.09;;;17.93;72.62
41636;BME280;27623;51.966;4.602;2022-07-29T05:24:09;-19298.53;;;17.98;72.02
41636;BME280;27623;51.966;4.602;2022-07-29T05:26:35;-19296.94;;;17.92;72.05
41636;BME280;27623;51.966;4.602;2022-07-29T05:29:01;-19296.53;;;17.91;73.00
41636;BME280;27623;51.966;4.602;2022-07-29T05:31:26;-19299.22;;;18.00;72.90
41636;BME280;27623;51.966;4.602;2022-07-29T05:33:52;-19299.50;;;18.01;71.52
41636;BME280;27623;51.966;4.602;2022-07-29T05:36:17;-19302.63;;;18.12;72.27
41636;BME280;27623;51.966;4.602;2022-07-29T05:38:43;-19304.91;;;18.20;72.21
41636;BME280;27623;51.966;4.602;2022-07-29T05:41:09;-19303.78;;;18.16;72.40
41636;BME280;27623;51.966;4.602;2022-07-29T05:43:35;-19303.78;;;18.16;72.78
41636;BME280;27623;51.966;4.602;2022-07-29T05:46:01;-19308.19;;;18.32;72.57
41636;BME280;27623;51.966;4.602;2022-07-29T05:48:26;-19307.75;;;18.31;72.17
41636;BME280;27623;51.966;4.602;2022-07-29T05:50:53;-19313.03;;;18.49;71.99
41636;BME280;27623;51.966;4.602;2022-07-29T05:53:18;-19309.75;;;18.38;71.81
41636;BME280;27623;51.966;4.602;2022-07-29T05:55:44;-19309.03;;;18.35;71.32
41636;BME280;27623;51.966;4.602;2022-07-29T05:58:09;-19309.91;;;18.38;71.06
41636;BME280;27623;51.966;4.602;2022-07-29T06:00:35;-19311.88;;;18.45;71.32
41636;BME280;27623;51.966;4.602;2022-07-29T06:03:00;-19312.75;;;18.48;71.50
41636;BME280;27623;51.966;4.602;2022-07-29T06:05:26;-19314.31;;;18.54;70.51
41636;BME280;27623;51.966;4.602;2022-07-29T06:07:52;-19314.59;;;18.55;70.50
41636;BME280;27623;51.966;4.602;2022-07-29T06:10:18;-19313.31;;;18.50;71.15
41636;BME280;27623;51.966;4.602;2022-07-29T06:12:44;-19310.31;;;18.40;70.96
41636;BME280;27623;51.966;4.602;2022-07-29T06:15:10;-19311.03;;;18.42;70.76
41636;BME280;27623;51.966;4.602;2022-07-29T06:17:36;-19309.19;;;18.36;70.38
41636;BME280;27623;51.966;4.602;2022-07-29T06:20:02;-19310.19;;;18.39;71.67
41636;BME280;27623;51.966;4.602;2022-07-29T06:22:28;-19312.88;;;18.49;71.48
41636;BME280;27623;51.966;4.602;2022-07-29T06:24:53;-19311.47;;;18.44;70.89
41636;BME280;27623;51.966;4.602;2022-07-29T06:27:19;-19313.16;;;18.50;70.99
41636;BME280;27623;51.966;4.602;2022-07-29T06:29:45;-19313.16;;;18.50;70.41
41636;BME280;27623;51.966;4.602;2022-07-29T06:32:10;-19315.31;;;18.58;71.05
41636;BME280;27623;51.966;4.602;2022-07-29T06:34:36;-19312.88;;;18.49;70.63
41636;BME280;27623;51.966;4.602;2022-07-29T06:37:06;-19311.75;;;18.45;69.99
41636;BME280;27623;51.966;4.602;2022-07-29T06:39:34;-19315.00;;;18.57;70.81
41636;BME280;27623;51.966;4.602;2022-07-29T06:42:00;-19311.31;;;18.43;71.28
41636;BME280;27623;51.966;4.602;2022-07-29T06:44:26;-19313.44;;;18.51;71.56
41636;BME280;27623;51.966;4.602;2022-07-29T06:46:52;-19315.31;;;18.58;70.51
41636;BME280;27623;51.966;4.602;2022-07-29T06:49:19;-19312.47;;;18.47;71.15
41636;BME280;27623;51.966;4.602;2022-07-29T06:51:45;-19312.75;;;18.48;70.95
41636;BME280;27623;51.966;4.602;2022-07-29T06:54:12;-19313.03;;;18.49;71.08
41636;BME280;27623;51.966;4.602;2022-07-29T06:56:38;-19310.47;;;18.40;70.59
41636;BME280;27623;51.966;4.602;2022-07-29T06:59:07;-19312.59;;;18.48;71.28
41636;BME280;27623;51.966;4.602;2022-07-29T07:01:33;-19314.88;;;18.56;71.72
41636;BME280;27623;51.966;4.602;2022-07-29T07:03:59;-19316.16;;;18.61;71.78
41636;BME280;27623;51.966;4.602;2022-07-29T07:06:24;-19316.59;;;18.62;71.79
41636;BME280;27623;51.966;4.602;2022-07-29T07:08:50;-19316.44;;;18.62;71.98
41636;BME280;27623;51.966;4.602;2022-07-29T07:11:16;-19317.16;;;18.64;71.32
41636;BME280;27623;51.966;4.602;2022-07-29T07:13:41;-19318.16;;;18.68;71.15
41636;BME280;27623;51.966;4.602;2022-07-29T07:16:06;-19319.13;;;18.71;71.06
41636;BME280;27623;51.966;4.602;2022-07-29T07:18:32;-19319.44;;;18.72;71.01
41636;BME280;27623;51.966;4.602;2022-07-29T07:20:58;-19321.13;;;18.78;71.65
41636;BME280;27623;51.966;4.602;2022-07-29T07:23:23;-19322.41;;;18.83;71.00
41636;BME280;27623;51.966;4.602;2022-07-29T07:25:50;-19322.56;;;18.83;70.61
41636;BME280;27623;51.966;4.602;2022-07-29T07:28:16;-19324.25;;;18.90;70.73
41636;BME280;27623;51.966;4.602;2022-07-29T07:30:41;-19327.09;;;19.00;70.49
41636;BME280;27623;51.966;4.602;2022-07-29T07:33:07;-19328.94;;;19.06;70.54
41636;BME280;27623;51.966;4.602;2022-07-29T07:35:33;-19329.53;;;19.08;70.82
41636;BME280;27623;51.966;4.602;2022-07-29T07:37:58;-19330.53;;;19.12;70.28
41636;BME280;27623;51.966;4.602;2022-07-29T07:40:24;-19328.94;;;19.06;69.76
41636;BME280;27623;51.966;4.602;2022-07-29T07:42:50;-19330.38;;;19.11;70.34
41636;BME280;27623;51.966;4.602;2022-07-29T07:45:16;-19331.22;;;19.14;70.43
41636;BME280;27623;51.966;4.602;2022-07-29T07:47:42;-19334.34;;;19.26;70.36
41636;BME280;27623;51.966;4.602;2022-07-29T07:50:09;-19335.78;;;19.31;69.69
41636;BME280;27623;51.966;4.602;2022-07-29T07:52:45;-19336.34;;;19.33;68.98
41636;BME280;27623;51.966;4.602;2022-07-29T07:55:11;-19337.19;;;19.36;68.92
41636;BME280;27623;51.966;4.602;2022-07-29T07:57:36;-19338.03;;;19.39;68.92
41636;BME280;27623;51.966;4.602;2022-07-29T08:00:02;-19339.47;;;19.44;68.53
41636;BME280;27623;51.966;4.602;2022-07-29T08:02:28;-19341.31;;;19.50;68.50
41636;BME280;27623;51.966;4.602;2022-07-29T08:04:54;-19343.31;;;19.58;69.15
41636;BME280;27623;51.966;4.602;2022-07-29T08:07:19;-19345.72;;;19.66;68.81
41636;BME280;27623;51.966;4.602;2022-07-29T08:09:45;-19346.28;;;19.68;68.44
41636;BME280;27623;51.966;4.602;2022-07-29T08:12:10;-19349.13;;;19.78;68.74
41636;BME280;27623;51.966;4.602;2022-07-29T08:14:36;-19351.41;;;19.86;67.38
41636;BME280;27623;51.966;4.602;2022-07-29T08:17:02;-19354.25;;;19.97;66.89
41636;BME280;27623;51.966;4.602;2022-07-29T08:19:28;-19355.25;;;20.00;65.49
41636;BME280;27623;51.966;4.602;2022-07-29T08:21:54;-19355.66;;;20.02;66.65
41636;BME280;27623;51.966;4.602;2022-07-29T08:24:22;-19358.94;;;20.13;64.83
41636;BME280;27623;51.966;4.602;2022-07-29T08:27:06;-19359.78;;;20.16;66.70
41636;BME280;27623;51.966;4.602;2022-07-29T08:29:34;-19361.06;;;20.21;66.93
41636;BME280;27623;51.966;4.602;2022-07-29T08:32:00;-19363.63;;;20.30;66.84
41636;BME280;27623;51.966;4.602;2022-07-29T08:34:25;-19366.19;;;20.39;66.63
41636;BME280;27623;51.966;4.602;2022-07-29T08:36:51;-19367.44;;;20.44;64.76
41636;BME280;27623;51.966;4.602;2022-07-29T08:39:17;-19370.00;;;20.53;62.52
41636;BME280;27623;51.966;4.602;2022-07-29T08:41:42;-19371.72;;;20.59;62.84
41636;BME280;27623;51.966;4.602;2022-07-29T08:44:08;-19374.41;;;20.69;63.41
41636;BME280;27623;51.966;4.602;2022-07-29T08:46:37;-19376.97;;;20.78;63.61
41636;BME280;27623;51.966;4.602;2022-07-29T08:49:03;-19380.66;;;20.91;62.82
41636;BME280;27623;51.966;4.602;2022-07-29T08:51:29;-19383.78;;;21.02;61.85
41636;BME280;27623;51.966;4.602;2022-07-29T08:53:56;-19387.88;;;21.17;61.16
41636;BME280;27623;51.966;4.602;2022-07-29T08:56:22;-19391.00;;;21.28;61.25
41636;BME280;27623;51.966;4.602;2022-07-29T08:58:49;-19394.28;;;21.40;60.96
41636;BME280;27623;51.966;4.602;2022-07-29T09:01:17;-19398.09;;;21.53;60.88
41636;BME280;27623;51.966;4.602;2022-07-29T09:03:46;-19401.38;;;21.65;58.74
41636;BME280;27623;51.966;4.602;2022-07-29T09:06:13;-19405.06;;;21.78;58.90
41636;BME280;27623;51.966;4.602;2022-07-29T09:08:40;-19410.31;;;21.97;58.98
41636;BME280;27623;51.966;4.602;2022-07-29T09:11:06;-19411.72;;;22.02;57.72
41636;BME280;27623;51.966;4.602;2022-07-29T09:13:33;-19413.28;;;22.08;58.91
41636;BME280;27623;51.966;4.602;2022-07-29T09:15:59;-19414.00;;;22.10;58.16
41636;BME280;27623;51.966;4.602;2022-07-29T09:18:39;-19416.97;;;22.21;58.59
41636;BME280;27623;51.966;4.602;2022-07-29T09:21:08;-19419.94;;;22.32;58.53
41636;BME280;27623;51.966;4.602;2022-07-29T09:24:07;-19421.94;;;22.39;58.84
41636;BME280;27623;51.966;4.602;2022-07-29T09:26:35;-19425.31;;;22.51;58.85
41636;BME280;27623;51.966;4.602;2022-07-29T09:29:11;-19428.16;;;22.61;59.02
41636;BME280;27623;51.966;4.602;2022-07-29T09:31:39;-19430.28;;;22.69;58.16
41636;BME280;27623;51.966;4.602;2022-07-29T09:34:06;-19431.41;;;22.73;56.92
41636;BME280;27623;51.966;4.602;2022-07-29T09:36:43;-19436.38;;;22.90;57.85
41636;BME280;27623;51.966;4.602;2022-07-29T09:39:10;-19438.38;;;22.98;58.19
41636;BME280;27623;51.966;4.602;2022-07-29T09:44:11;-19442.63;;;23.13;57.80
41636;BME280;27623;51.966;4.602;2022-07-29T09:46:37;-19444.88;;;23.21;57.02
41636;BME280;27623;51.966;4.602;2022-07-29T09:49:12;-19447.84;;;23.31;56.31
41636;BME280;27623;51.966;4.602;2022-07-29T09:51:39;-19451.97;;;23.46;55.44
41636;BME280;27623;51.966;4.602;2022-07-29T09:54:24;-19455.22;;;23.58;55.49
41636;BME280;27623;51.966;4.602;2022-07-29T09:56:51;-19458.63;;;23.70;55.72
41636;BME280;27623;51.966;4.602;2022-07-29T09:59:17;-19462.59;;;23.84;56.42
41636;BME280;27623;51.966;4.602;2022-07-29T10:01:43;-19465.25;;;23.94;55.97
41636;BME280;27623;51.966;4.602;2022-07-29T10:04:09;-19464.41;;;23.91;54.50
41636;BME280;27623;51.966;4.602;2022-07-29T10:06:34;-19467.09;;;24.01;55.23
41636;BME280;27623;51.966;4.602;2022-07-29T10:09:07;-19470.34;;;24.12;54.40
41636;BME280;27623;51.966;4.602;2022-07-29T10:11:33;-19474.03;;;24.25;56.13
41636;BME280;27623;51.966;4.602;2022-07-29T10:14:01;-19477.16;;;24.37;55.20
41636;BME280;27623;51.966;4.602;2022-07-29T10:16:27;-19478.28;;;24.41;53.90
41636;BME280;27623;51.966;4.602;2022-07-29T10:19:00;-19481.81;;;24.53;54.94
41636;BME280;27623;51.966;4.602;2022-07-29T10:21:26;-19483.53;;;24.59;54.00
41636;BME280;27623;51.966;4.602;2022-07-29T10:23:56;-19487.19;;;24.73;53.56
41636;BME280;27623;51.966;4.602;2022-07-29T10:26:22;-19491.72;;;24.89;54.04
41636;BME280;27623;51.966;4.602;2022-07-29T10:28:48;-19496.25;;;25.05;53.62
41636;BME280;27623;51.966;4.602;2022-07-29T10:31:29;-19499.34;;;25.16;51.57
41636;BME280;27623;51.966;4.602;2022-07-29T10:40:25;-19510.66;;;25.57;49.86
41636;BME280;27623;51.966;4.602;2022-07-29T10:43:21;-19510.66;;;25.57;47.44
41636;BME280;27623;51.966;4.602;2022-07-29T10:45:48;-19516.03;;;25.76;48.43
41636;BME280;27623;51.966;4.602;2022-07-29T10:48:14;-19516.31;;;25.77;47.17
41636;BME280;27623;51.966;4.602;2022-07-29T10:51:03;-19521.97;;;25.97;47.52
41636;BME280;27623;51.966;4.602;2022-07-29T10:53:50;-19526.50;;;26.14;45.89
41636;BME280;27623;51.966;4.602;2022-07-29T10:56:30;-19528.19;;;26.20;46.29
41636;BME280;27623;51.966;4.602;2022-07-29T11:01:52;-19534.69;;;26.43;45.69
41636;BME280;27623;51.966;4.602;2022-07-29T11:07:10;-19540.75;;;26.65;43.10
41636;BME280;27623;51.966;4.602;2022-07-29T11:09:36;-19544.97;;;26.80;44.45
41636;BME280;27623;51.966;4.602;2022-07-29T11:12:02;-19549.78;;;26.97;44.40
41636;BME280;27623;51.966;4.602;2022-07-29T11:14:56;-19553.31;;;27.10;43.47
41636;BME280;27623;51.966;4.602;2022-07-29T11:17:24;-19557.81;;;27.26;43.05
41636;BME280;27623;51.966;4.602;2022-07-29T11:19:49;-19562.34;;;27.43;42.11
41636;BME280;27623;51.966;4.602;2022-07-29T11:22:34;-19558.09;;;27.27;40.98
41636;BME280;27623;51.966;4.602;2022-07-29T11:25:17;-19559.22;;;27.31;41.92
41636;BME280;27623;51.966;4.602;2022-07-29T11:27:44;-19567.69;;;27.62;41.83
41636;BME280;27623;51.966;4.602;2022-07-29T11:30:10;-19560.50;;;27.36;39.35
41636;BME280;27623;51.966;4.602;2022-07-29T11:32:39;-19567.41;;;27.61;41.55
41636;BME280;27623;51.966;4.602;2022-07-29T11:37:38;-19582.34;;;28.15;41.73
41636;BME280;27623;51.966;4.602;2022-07-29T11:45:08;-19589.00;;;28.38;37.26
41636;BME280;27623;51.966;4.602;2022-07-29T11:47:48;-19592.78;;;28.52;38.34
41636;BME280;27623;51.966;4.602;2022-07-29T11:50:27;-19596.88;;;28.67;37.96
41636;BME280;27623;51.966;4.602;2022-07-29T11:52:53;-19602.09;;;28.86;37.75
41636;BME280;27623;51.966;4.602;2022-07-29T11:55:21;-19603.06;;;28.89;36.28
41636;BME280;27623;51.966;4.602;2022-07-29T11:57:55;-19601.66;;;28.84;37.07
41636;BME280;27623;51.966;4.602;2022-07-29T12:02:55;-19610.53;;;29.16;36.23
41636;BME280;27623;51.966;4.602;2022-07-29T12:05:29;-19611.94;;;29.21;35.34
41636;BME280;27623;51.966;4.602;2022-07-29T12:07:55;-19616.16;;;29.36;35.55
41636;BME280;27623;51.966;4.602;2022-07-29T12:10:21;-19618.44;;;29.45;34.88
41636;BME280;27623;51.966;4.602;2022-07-29T12:12:51;-19623.22;;;29.62;33.73
41636;BME280;27623;51.966;4.602;2022-07-29T12:15:18;-19621.66;;;29.56;34.99
41636;BME280;27623;51.966;4.602;2022-07-29T12:17:46;-19625.59;;;29.70;34.86
41636;BME280;27623;51.966;4.602;2022-07-29T12:20:12;-19628.56;;;29.81;35.18
41636;BME280;27623;51.966;4.602;2022-07-29T12:22:42;-19631.38;;;29.91;34.94
41636;BME280;27623;51.966;4.602;2022-07-29T12:25:13;-19632.06;;;29.94;32.88
41636;BME280;27623;51.966;4.602;2022-07-29T12:27:43;-19626.16;;;29.72;33.30
41636;BME280;27623;51.966;4.602;2022-07-29T12:30:11;-19629.41;;;29.84;33.71
41636;BME280;27623;51.966;4.602;2022-07-29T12:32:40;-19636.72;;;30.11;32.86
41636;BME280;27623;51.966;4.602;2022-07-29T12:35:09;-19641.91;;;30.29;32.62
41636;BME280;27623;51.966;4.602;2022-07-29T12:37:37;-19636.84;;;30.11;30.66
41636;BME280;27623;51.966;4.602;2022-07-29T12:40:04;-19631.38;;;29.91;32.48
41636;BME280;27623;51.966;4.602;2022-07-29T12:42:30;-19637.97;;;30.15;32.61
41636;BME280;27623;51.966;4.602;2022-07-29T12:44:56;-19642.34;;;30.31;32.25
41636;BME280;27623;51.966;4.602;2022-07-29T12:47:21;-19648.25;;;30.52;33.39
41636;BME280;27623;51.966;4.602;2022-07-29T12:49:48;-19654.00;;;30.73;32.13
41636;BME280;27623;51.966;4.602;2022-07-29T12:52:44;-19663.41;;;31.07;32.22
41636;BME280;27623;51.966;4.602;2022-07-29T12:55:10;-19662.00;;;31.02;31.08
41636;BME280;27623;51.966;4.602;2022-07-29T12:57:50;-19665.41;;;31.14;30.20
41636;BME280;27623;51.966;4.602;2022-07-29T13:00:22;-19664.41;;;31.10;29.95
41636;BME280;27623;51.966;4.602;2022-07-29T13:02:57;-19666.25;;;31.17;30.56
41636;BME280;27623;51.966;4.602;2022-07-29T13:05:39;-19663.56;;;31.07;29.00
41636;BME280;27623;51.966;4.602;2022-07-29T13:08:15;-19665.69;;;31.15;30.33
41636;BME280;27623;51.966;4.602;2022-07-29T13:10:42;-19665.25;;;31.14;29.63
41636;BME280;27623;51.966;4.602;2022-07-29T13:13:09;-19663.97;;;31.09;30.51
41636;BME280;27623;51.966;4.602;2022-07-29T13:15:38;-19665.69;;;31.15;29.83
41636;BME280;27623;51.966;4.602;2022-07-29T13:18:05;-19667.34;;;31.21;29.56
41636;BME280;27623;51.966;4.602;2022-07-29T13:20:50;-19673.53;;;31.43;29.91
41636;BME280;27623;51.966;4.602;2022-07-29T13:23:16;-19677.34;;;31.57;30.38
41636;BME280;27623;51.966;4.602;2022-07-29T13:25:42;-19682.09;;;31.74;31.20
41636;BME280;27623;51.966;4.602;2022-07-29T13:28:07;-19689.00;;;31.99;30.65
41636;BME280;27623;51.966;4.602;2022-07-29T13:30:33;-19689.81;;;32.02;28.61
41636;BME280;27623;51.966;4.602;2022-07-29T13:32:58;-19692.91;;;32.14;29.55
41636;BME280;27623;51.966;4.602;2022-07-29T13:35:24;-19695.16;;;32.22;29.62